Clarks Fork, Missouri
Current Conditions -  °F | °C
As of 4:35 PM on Tuesday 21 Oct 2014 (Local Time) from KVER Reporting Station
Haze Haze  
Wind Chill: 72°   Ceiling: 700
Heat Index: 72°   Visibility: 1.5mi
Dew Point: 42°   Wind: 5mph
Humidity: 34%   Direction: 100°E
Pressure: 30.09"   Gusts: NA
Location:  38.8814°N, 92.7602°W
Report Text: KVER 212135Z AUTO 10004KT 1 1/2SM HZ VV007 22/06 A3009 RMK AO2 VIS 1/2V4 T02220055
Loading
Personal Weather Stations






























Interactive Weather Map
Tropical Storm Tracking
New forecast layout! Learn more

10-Day Weather Forecast

Advertisements
Track Severe Weather on mobile